Terminal Aerodrome Forecast
Issued by NWS Tulsa, OK

Current Version | Previous Version | Text Only | Print | Product List | Glossary On
Versions: 1 2 3 4 5 6 7 8 9 10 11 12 13 14 15 16
000
FTUS44 KTSA 231720
TAFTUL
TAF
KTUL 231720Z 2318/2418 18012G18KT P6SM VCSH SCT025 OVC060
      TEMPO 2319/2323 4SM -TSRA BKN025CB
     FM240300 17012KT P6SM BKN250
     FM241500 20013G20KT P6SM SCT250=

USA.gov is the U.S. government's official web portal to all federal, state and local government web resources and services.